Time;durP1;ratioP1;P1;durP2;ratioP2;P2;SDS_P1;SDS_P2;PMS_P1;PMS_P2;Temp;Humidity;BMP_temperature;BMP_pressure;BME280_temperature;BME280_humidity;BME280_pressure;Samples;Min_cycle;Max_cycle;Signal;HPM_P1;HPM_P2
2022/12/26 00:01:01;;;;;;;;;1.00;1.00;;;;;;;;5057446;28;8851;-80
2022/12/26 00:03:34;;;;;;;;;1.00;1.00;;;;;;;;5057925;28;8861;-80
2022/12/26 00:06:02;;;;;;;;;1.75;1.75;;;;;;;;5055001;28;8969;-79
2022/12/26 00:08:30;;;;;;;;;2.00;2.00;;;;;;;;5058288;28;8839;-80
2022/12/26 00:10:58;;;;;;;;;3.50;2.00;;;;;;;;5055923;28;8857;-80
2022/12/26 00:13:26;;;;;;;;;3.50;3.50;;;;;;;;5052376;28;8889;-79
2022/12/26 00:15:53;;;;;;;;;2.75;1.00;;;;;;;;5050648;28;8851;-80
2022/12/26 00:18:21;;;;;;;;;1.00;1.00;;;;;;;;5055445;28;8865;-80
2022/12/26 00:20:48;;;;;;;;;1.67;1.67;;;;;;;;5053053;28;8834;-81
2022/12/26 00:23:18;;;;;;;;;1.50;1.50;;;;;;;;5057861;28;8982;-80
2022/12/26 00:25:45;;;;;;;;;3.00;1.75;;;;;;;;5053998;28;8835;-79
2022/12/26 00:28:13;;;;;;;;;1.00;1.00;;;;;;;;5054586;28;8851;-80
2022/12/26 00:30:40;;;;;;;;;3.00;3.00;;;;;;;;5057650;28;8889;-80
2022/12/26 00:33:07;;;;;;;;;1.33;1.33;;;;;;;;5058427;28;9071;-80
2022/12/26 00:35:35;;;;;;;;;1.00;1.00;;;;;;;;5053383;28;9064;-79
2022/12/26 00:38:03;;;;;;;;;1.00;1.00;;;;;;;;5052818;28;8939;-79
2022/12/26 00:40:32;;;;;;;;;4.33;1.00;;;;;;;;5054509;28;9052;-79
2022/12/26 00:43:00;;;;;;;;;1.00;1.00;;;;;;;;5053158;28;8958;-80
2022/12/26 00:45:27;;;;;;;;;0.75;0.75;;;;;;;;5086054;28;8971;-79
2022/12/26 00:47:55;;;;;;;;;0.75;0.50;;;;;;;;5053378;28;8881;-80
2022/12/26 00:50:22;;;;;;;;;0.75;0.75;;;;;;;;5040263;28;8850;-80
2022/12/26 00:52:50;;;;;;;;;0.67;0.67;;;;;;;;5057732;28;9696;-80
2022/12/26 00:55:17;;;;;;;;;0.00;0.00;;;;;;;;5053988;28;8953;-79
2022/12/26 00:57:46;;;;;;;;;0.00;0.00;;;;;;;;5057420;28;10121;-80
2022/12/26 01:00:14;;;;;;;;;1.50;0.00;;;;;;;;5058592;28;8859;-79
2022/12/26 01:02:42;;;;;;;;;0.50;0.50;;;;;;;;5055038;28;8867;-78
2022/12/26 01:05:11;;;;;;;;;1.00;1.00;;;;;;;;5055588;28;8877;-79
2022/12/26 01:07:39;;;;;;;;;0.67;0.67;;;;;;;;5054423;28;8992;-79
2022/12/26 01:10:08;;;;;;;;;1.00;1.00;;;;;;;;5055173;28;9738;-81
2022/12/26 01:12:36;;;;;;;;;0.00;0.00;;;;;;;;5056032;28;8949;-80
2022/12/26 01:15:06;;;;;;;;;2.00;1.00;;;;;;;;5056566;28;8943;-79
2022/12/26 01:17:34;;;;;;;;;2.00;0.00;;;;;;;;5057352;28;9019;-80
2022/12/26 01:20:02;;;;;;;;;1.00;1.00;;;;;;;;5054893;28;9430;-80
2022/12/26 01:22:29;;;;;;;;;2.00;0.00;;;;;;;;5054607;28;8931;-80
2022/12/26 01:24:57;;;;;;;;;1.00;1.00;;;;;;;;5054280;28;9874;-80
2022/12/26 01:27:26;;;;;;;;;0.50;0.50;;;;;;;;5056154;28;8979;-80
2022/12/26 01:29:55;;;;;;;;;1.00;1.00;;;;;;;;5057628;28;8861;-80
2022/12/26 01:32:24;;;;;;;;;0.00;0.00;;;;;;;;5056577;28;9783;-80
2022/12/26 01:34:54;;;;;;;;;0.00;0.00;;;;;;;;5056497;28;8946;-80
2022/12/26 01:37:22;;;;;;;;;1.00;0.00;;;;;;;;5056073;28;8943;-80
2022/12/26 01:39:50;;;;;;;;;0.00;0.00;;;;;;;;5057943;28;9041;-80
2022/12/26 01:42:19;;;;;;;;;0.33;0.33;;;;;;;;5059609;28;9081;-80
2022/12/26 01:45:03;;;;;;;;;0.67;0.67;;;;;;;;5059285;28;9737;-80
2022/12/26 01:47:39;;;;;;;;;0.67;0.67;;;;;;;;5059208;28;9099;-80
2022/12/26 01:50:12;;;;;;;;;2.00;0.33;;;;;;;;5061618;28;9177;-80
2022/12/26 01:52:46;;;;;;;;;0.00;0.00;;;;;;;;5056749;28;9205;-80
2022/12/26 01:55:18;;;;;;;;;1.00;1.00;;;;;;;;5058126;28;9252;-80
2022/12/26 01:57:50;;;;;;;;;0.00;0.00;;;;;;;;5056766;28;9199;-79
2022/12/26 02:00:18;;;;;;;;;0.33;0.33;;;;;;;;5058260;28;9772;-80
2022/12/26 02:05:36;;;;;;;;;1.00;1.00;;;;;;;;5058285;28;9076;-80
2022/12/26 02:08:06;;;;;;;;;0.00;0.00;;;;;;;;5055767;28;8985;-80
2022/12/26 02:10:36;;;;;;;;;0.00;0.00;;;;;;;;5058315;28;8968;-80
2022/12/26 02:13:05;;;;;;;;;0.00;0.00;;;;;;;;5091997;28;9107;-79
2022/12/26 02:15:32;;;;;;;;;0.00;0.00;;;;;;;;5060365;28;9740;-80
2022/12/26 02:18:01;;;;;;;;;0.00;0.00;;;;;;;;5090007;27;8986;-80
2022/12/26 02:20:33;;;;;;;;;0.00;0.00;;;;;;;;5060571;28;8968;-80
2022/12/26 02:23:38;;;;;;;;;0.00;0.00;;;;;;;;5058642;28;9022;-80
2022/12/26 02:26:46;;;;;;;;;0.00;0.00;;;;;;;;5040404;28;8996;-80
2022/12/26 02:29:42;;;;;;;;;1.00;0.00;;;;;;;;5056545;28;9087;-79
2022/12/26 02:32:16;;;;;;;;;1.00;0.00;;;;;;;;5056935;28;9244;-80
2022/12/26 02:34:53;;;;;;;;;0.67;0.67;;;;;;;;5058104;28;9190;-80
2022/12/26 02:37:29;;;;;;;;;0.00;0.00;;;;;;;;5055624;28;9101;-80
2022/12/26 02:40:08;;;;;;;;;0.00;0.00;;;;;;;;5058549;28;9182;-79
2022/12/26 02:42:43;;;;;;;;;0.00;0.00;;;;;;;;5056847;28;9106;-80
2022/12/26 02:48:09;;;;;;;;;0.00;0.00;;;;;;;;5058114;28;9135;-77
2022/12/26 03:13:28;;;;;;;;;0.00;0.00;;;;;;;;5056743;28;9222;-79
2022/12/26 03:18:47;;;;;;;;;0.00;0.00;;;;;;;;5060576;28;9240;-79
2022/12/26 03:21:20;;;;;;;;;0.00;0.00;;;;;;;;5057749;28;9083;-79
2022/12/26 03:23:48;;;;;;;;;0.00;0.00;;;;;;;;5059531;28;9280;-80
2022/12/26 03:31:45;;;;;;;;;0.00;0.00;;;;;;;;5025390;28;9154;-80
2022/12/26 03:34:18;;;;;;;;;0.00;0.00;;;;;;;;5058630;28;9920;-80
2022/12/26 03:37:00;;;;;;;;;0.00;0.00;;;;;;;;5057348;28;9176;-79
2022/12/26 04:19:25;;;;;;;;;0.00;0.00;;;;;;;;5051363;28;9324;-79
2022/12/26 04:44:17;;;;;;;;;0.00;0.00;;;;;;;;5015185;28;9328;-79
2022/12/26 04:46:49;;;;;;;;;0.00;0.00;;;;;;;;5055256;28;9250;-80
2022/12/26 04:52:05;;;;;;;;;2.00;0.00;;;;;;;;5052220;28;9262;-79
2022/12/26 04:54:33;;;;;;;;;0.00;0.00;;;;;;;;5052994;28;9251;-79
2022/12/26 04:57:01;;;;;;;;;0.00;0.00;;;;;;;;5052389;28;9347;-79
2022/12/26 04:59:30;;;;;;;;;0.00;0.00;;;;;;;;5058338;28;9159;-80
2022/12/26 05:10:18;;;;;;;;;1.33;0.00;;;;;;;;5050797;28;9236;-79
2022/12/26 05:12:46;;;;;;;;;0.00;0.00;;;;;;;;5056291;28;9265;-79
2022/12/26 05:15:16;;;;;;;;;0.33;0.33;;;;;;;;5056915;28;9352;-80
2022/12/26 05:28:51;;;;;;;;;0.00;0.00;;;;;;;;5054309;28;9307;-80
2022/12/26 05:31:21;;;;;;;;;0.00;0.00;;;;;;;;5055571;28;9201;-80
2022/12/26 05:34:05;;;;;;;;;0.00;0.00;;;;;;;;5059090;28;10080;-79
2022/12/26 05:36:35;;;;;;;;;0.00;0.00;;;;;;;;5058576;28;9316;-80
2022/12/26 05:39:03;;;;;;;;;1.00;1.00;;;;;;;;5091171;28;9264;-80
2022/12/26 05:41:31;;;;;;;;;0.00;0.00;;;;;;;;5060535;28;9293;-80
2022/12/26 05:43:58;;;;;;;;;0.00;0.00;;;;;;;;5059371;28;9264;-80
2022/12/26 05:46:27;;;;;;;;;0.00;0.00;;;;;;;;5055882;28;9443;-80
2022/12/26 05:48:55;;;;;;;;;1.00;1.00;;;;;;;;5056403;28;9252;-80
2022/12/26 05:51:22;;;;;;;;;0.00;0.00;;;;;;;;5059146;28;9293;-80
2022/12/26 05:53:50;;;;;;;;;0.00;0.00;;;;;;;;5040052;28;9243;-80
2022/12/26 05:56:19;;;;;;;;;1.00;1.00;;;;;;;;5060583;28;9358;-80
2022/12/26 05:58:47;;;;;;;;;0.67;0.67;;;;;;;;5057786;28;9269;-80
2022/12/26 06:01:17;;;;;;;;;0.00;0.00;;;;;;;;5051855;28;9476;-79
2022/12/26 06:03:48;;;;;;;;;0.00;0.00;;;;;;;;5055752;28;9394;-80
2022/12/26 06:06:16;;;;;;;;;0.00;0.00;;;;;;;;5053125;28;10277;-81
2022/12/26 06:08:44;;;;;;;;;0.00;0.00;;;;;;;;5056437;28;9404;-80
2022/12/26 06:11:13;;;;;;;;;0.00;0.00;;;;;;;;5070425;28;9273;-79
2022/12/26 06:13:41;;;;;;;;;0.33;0.33;;;;;;;;5053718;28;9337;-80
2022/12/26 06:16:11;;;;;;;;;0.00;0.00;;;;;;;;5051162;28;9258;-79
2022/12/26 06:18:38;;;;;;;;;0.00;0.00;;;;;;;;5057170;28;9412;-80
2022/12/26 06:21:09;;;;;;;;;0.00;0.00;;;;;;;;5059622;28;9394;-79
2022/12/26 06:23:37;;;;;;;;;0.00;0.00;;;;;;;;5053451;28;9332;-79
2022/12/26 06:26:06;;;;;;;;;0.00;0.00;;;;;;;;5056203;28;9465;-79
2022/12/26 06:28:34;;;;;;;;;0.00;0.00;;;;;;;;5055814;28;9506;-80
2022/12/26 06:31:05;;;;;;;;;0.00;0.00;;;;;;;;5055381;28;9490;-80
2022/12/26 06:33:33;;;;;;;;;0.00;0.00;;;;;;;;5056164;28;9347;-81
2022/12/26 06:36:07;;;;;;;;;0.00;0.00;;;;;;;;5085487;28;9554;-80
2022/12/26 06:38:35;;;;;;;;;0.00;0.00;;;;;;;;5063250;28;9401;-71
2022/12/26 06:41:05;;;;;;;;;0.50;0.50;;;;;;;;5056338;28;9451;-72
2022/12/26 06:43:32;;;;;;;;;0.00;0.00;;;;;;;;5063920;28;9547;-72
2022/12/26 06:46:01;;;;;;;;;0.00;0.00;;;;;;;;5065832;28;9520;-72
2022/12/26 06:48:28;;;;;;;;;1.00;0.00;;;;;;;;5065567;28;9416;-72
2022/12/26 06:50:55;;;;;;;;;0.00;0.00;;;;;;;;5064850;28;9426;-72
2022/12/26 06:53:25;;;;;;;;;0.00;0.00;;;;;;;;5043312;28;9542;-71
2022/12/26 06:55:53;;;;;;;;;1.00;1.00;;;;;;;;5062380;28;9514;-71
2022/12/26 06:58:20;;;;;;;;;0.00;0.00;;;;;;;;5060355;28;9558;-72
2022/12/26 07:00:47;;;;;;;;;0.00;0.00;;;;;;;;5060784;28;9515;-72
2022/12/26 07:03:15;;;;;;;;;0.00;0.00;;;;;;;;5060870;28;9484;-71
2022/12/26 07:05:42;;;;;;;;;0.00;0.00;;;;;;;;5061466;28;10165;-72
2022/12/26 07:08:09;;;;;;;;;0.00;0.00;;;;;;;;5060308;28;9414;-72
2022/12/26 07:10:38;;;;;;;;;0.00;0.00;;;;;;;;5063011;28;10725;-72
2022/12/26 07:13:05;;;;;;;;;0.00;0.00;;;;;;;;5057015;28;9608;-72
2022/12/26 07:15:32;;;;;;;;;0.00;0.00;;;;;;;;5058053;28;9555;-71
2022/12/26 07:18:00;;;;;;;;;0.00;0.00;;;;;;;;5058760;28;9508;-72
2022/12/26 07:20:27;;;;;;;;;1.00;0.00;;;;;;;;5057555;28;9530;-71
2022/12/26 07:22:55;;;;;;;;;0.00;0.00;;;;;;;;5058720;28;9533;-71
2022/12/26 07:25:22;;;;;;;;;0.00;0.00;;;;;;;;5084609;27;10293;-71
2022/12/26 07:27:55;;;;;;;;;0.00;0.00;;;;;;;;5055413;28;9469;-71
2022/12/26 07:30:23;;;;;;;;;2.00;0.25;;;;;;;;5055939;28;9584;-71
2022/12/26 07:32:50;;;;;;;;;0.00;0.00;;;;;;;;5051974;28;9588;-73
2022/12/26 07:35:18;;;;;;;;;0.00;0.00;;;;;;;;5050384;28;9559;-74
2022/12/26 07:37:45;;;;;;;;;0.00;0.00;;;;;;;;5054542;28;9489;-78
2022/12/26 07:40:14;;;;;;;;;2.00;0.00;;;;;;;;5057691;28;9573;-77
2022/12/26 07:42:41;;;;;;;;;0.00;0.00;;;;;;;;5061594;28;9509;-76
2022/12/26 07:45:11;;;;;;;;;2.00;0.00;;;;;;;;5049587;28;9691;-75
2022/12/26 07:47:38;;;;;;;;;0.00;0.00;;;;;;;;5055080;28;9474;-74
2022/12/26 07:50:06;;;;;;;;;0.00;0.00;;;;;;;;5054428;28;9595;-74
2022/12/26 07:52:33;;;;;;;;;1.00;1.00;;;;;;;;5054543;28;9530;-77
2022/12/26 07:55:05;;;;;;;;;2.50;1.00;;;;;;;;5056594;28;9463;-76
2022/12/26 07:57:42;;;;;;;;;0.00;0.00;;;;;;;;5065002;28;10476;-75
2022/12/26 08:00:13;;;;;;;;;0.50;0.50;;;;;;;;5056095;28;10327;-75
2022/12/26 08:02:40;;;;;;;;;0.00;0.00;;;;;;;;5053725;28;9540;-80
2022/12/26 08:05:08;;;;;;;;;1.50;0.00;;;;;;;;5050547;28;9504;-76
2022/12/26 08:07:35;;;;;;;;;0.00;0.00;;;;;;;;5054119;28;9524;-76
2022/12/26 08:10:03;;;;;;;;;0.00;0.00;;;;;;;;5056660;28;10399;-77
2022/12/26 08:12:32;;;;;;;;;2.00;1.00;;;;;;;;5057470;28;9539;-74
2022/12/26 08:15:00;;;;;;;;;0.00;0.00;;;;;;;;5055282;28;9481;-75
2022/12/26 08:17:31;;;;;;;;;0.25;0.00;;;;;;;;5053595;28;9426;-78
2022/12/26 08:19:59;;;;;;;;;0.00;0.00;;;;;;;;5055432;28;9511;-77
2022/12/26 08:22:26;;;;;;;;;0.25;0.25;;;;;;;;5057115;28;10186;-74
2022/12/26 08:24:54;;;;;;;;;1.75;0.00;;;;;;;;5056528;28;9379;-76
2022/12/26 08:27:21;;;;;;;;;0.00;0.00;;;;;;;;5050924;28;9394;-77
2022/12/26 08:29:49;;;;;;;;;0.00;0.00;;;;;;;;5055174;28;9389;-77
2022/12/26 08:32:17;;;;;;;;;0.00;0.00;;;;;;;;5041748;28;9494;-75
2022/12/26 08:34:46;;;;;;;;;0.00;0.00;;;;;;;;5055134;28;9323;-76
2022/12/26 08:37:13;;;;;;;;;0.33;0.33;;;;;;;;5058069;28;9444;-75
2022/12/26 08:39:40;;;;;;;;;0.00;0.00;;;;;;;;5079561;28;9405;-75
2022/12/26 08:42:08;;;;;;;;;2.00;0.00;;;;;;;;5050408;28;10180;-75
2022/12/26 08:44:36;;;;;;;;;0.00;0.00;;;;;;;;5085989;28;10216;-75
2022/12/26 08:47:06;;;;;;;;;0.00;0.00;;;;;;;;5052817;28;9418;-76
2022/12/26 08:49:33;;;;;;;;;0.00;0.00;;;;;;;;5058552;28;9329;-76
2022/12/26 08:52:02;;;;;;;;;1.00;1.00;;;;;;;;5055615;28;9248;-76
2022/12/26 08:54:30;;;;;;;;;0.00;0.00;;;;;;;;5053677;28;9305;-76
2022/12/26 08:56:57;;;;;;;;;0.33;0.33;;;;;;;;5053226;28;9324;-76
2022/12/26 08:59:25;;;;;;;;;0.00;0.00;;;;;;;;5061354;28;9239;-76
2022/12/26 09:01:52;;;;;;;;;0.00;0.00;;;;;;;;5059863;28;9320;-76
2022/12/26 09:04:20;;;;;;;;;0.33;0.00;;;;;;;;5058828;28;9229;-76
2022/12/26 09:06:47;;;;;;;;;0.00;0.00;;;;;;;;5089746;28;9255;-76
2022/12/26 09:09:17;;;;;;;;;1.00;0.00;;;;;;;;5055241;28;9160;-76
2022/12/26 09:11:44;;;;;;;;;0.00;0.00;;;;;;;;5057332;28;9216;-76
2022/12/26 09:14:13;;;;;;;;;2.00;0.00;;;;;;;;5057984;28;9258;-77
2022/12/26 09:16:42;;;;;;;;;0.00;0.00;;;;;;;;5059269;28;9233;-76
2022/12/26 09:19:12;;;;;;;;;1.00;1.00;;;;;;;;5056312;28;9241;-76
2022/12/26 09:21:40;;;;;;;;;1.00;1.00;;;;;;;;5055277;28;9225;-77
2022/12/26 09:24:11;;;;;;;;;0.67;0.67;;;;;;;;5057724;28;9276;-76
2022/12/26 09:26:41;;;;;;;;;0.00;0.00;;;;;;;;5054840;28;9313;-77
2022/12/26 09:29:09;;;;;;;;;1.00;1.00;;;;;;;;5057051;28;9224;-77
2022/12/26 09:31:36;;;;;;;;;2.00;0.33;;;;;;;;5058905;28;9201;-75
2022/12/26 09:34:05;;;;;;;;;1.00;1.00;;;;;;;;5059174;28;9178;-76
2022/12/26 09:36:36;;;;;;;;;0.00;0.00;;;;;;;;5056798;28;9143;-76
2022/12/26 09:39:04;;;;;;;;;0.00;0.00;;;;;;;;5059802;28;9298;-78
2022/12/26 09:41:42;;;;;;;;;0.00;0.00;;;;;;;;5060546;28;9201;-77
2022/12/26 09:44:16;;;;;;;;;0.00;0.00;;;;;;;;5061847;28;9065;-77
2022/12/26 09:46:48;;;;;;;;;1.00;1.00;;;;;;;;5089548;28;9184;-78
2022/12/26 09:49:20;;;;;;;;;2.00;0.00;;;;;;;;5061299;28;9124;-77
2022/12/26 09:51:51;;;;;;;;;0.33;0.33;;;;;;;;5059339;28;9264;-79
2022/12/26 09:54:25;;;;;;;;;2.67;1.00;;;;;;;;5058001;28;9860;-78
2022/12/26 09:56:55;;;;;;;;;2.33;2.00;;;;;;;;5055909;28;9083;-76
2022/12/26 09:59:25;;;;;;;;;0.00;0.00;;;;;;;;5060042;28;9019;-76
2022/12/26 10:01:52;;;;;;;;;2.00;2.00;;;;;;;;5058943;28;9092;-76
2022/12/26 10:04:23;;;;;;;;;0.33;0.33;;;;;;;;5062248;28;9250;-81
2022/12/26 10:06:58;;;;;;;;;1.00;1.00;;;;;;;;5043817;28;9265;-76
2022/12/26 10:09:43;;;;;;;;;1.00;1.00;;;;;;;;5060005;28;9983;-76
2022/12/26 10:12:22;;;;;;;;;1.00;1.00;;;;;;;;5058479;28;9089;-76
2022/12/26 10:14:55;;;;;;;;;1.00;1.00;;;;;;;;5056495;28;9136;-77
2022/12/26 10:17:28;;;;;;;;;2.00;0.33;;;;;;;;5055583;28;9078;-77
2022/12/26 10:20:12;;;;;;;;;2.00;1.00;;;;;;;;5058919;28;9016;-77
2022/12/26 10:22:56;;;;;;;;;0.67;0.67;;;;;;;;5058278;28;9039;-77
2022/12/26 10:25:29;;;;;;;;;2.33;1.00;;;;;;;;5057592;28;9081;-78
2022/12/26 10:27:57;;;;;;;;;0.67;0.67;;;;;;;;5060806;28;9048;-77
2022/12/26 10:30:28;;;;;;;;;1.00;1.00;;;;;;;;5056690;28;9119;-76
2022/12/26 10:32:59;;;;;;;;;2.00;1.00;;;;;;;;5057271;28;9703;-76
2022/12/26 10:35:31;;;;;;;;;1.33;1.33;;;;;;;;5057175;28;9298;-76
2022/12/26 10:38:02;;;;;;;;;1.00;1.00;;;;;;;;5058513;28;9194;-77
2022/12/26 10:40:35;;;;;;;;;0.00;0.00;;;;;;;;5057842;28;9044;-79
2022/12/26 10:43:18;;;;;;;;;2.33;1.00;;;;;;;;5058286;28;9213;-76
2022/12/26 10:45:51;;;;;;;;;1.00;1.00;;;;;;;;5058672;28;9115;-74
2022/12/26 10:48:18;;;;;;;;;1.00;1.00;;;;;;;;5056208;28;9180;-75
2022/12/26 10:50:48;;;;;;;;;2.00;1.00;;;;;;;;5059703;28;9054;-74
2022/12/26 10:53:17;;;;;;;;;1.00;1.00;;;;;;;;5054028;28;9082;-73
2022/12/26 10:55:44;;;;;;;;;1.00;1.00;;;;;;;;5058649;28;9129;-75
2022/12/26 10:58:18;;;;;;;;;0.00;0.00;;;;;;;;5061480;28;8940;-75
2022/12/26 11:00:46;;;;;;;;;2.67;1.00;;;;;;;;5052950;28;8944;-78
2022/12/26 11:03:14;;;;;;;;;1.67;1.33;;;;;;;;5051540;28;9876;-77
2022/12/26 11:05:43;;;;;;;;;1.00;1.00;;;;;;;;5059531;28;9324;-75
2022/12/26 11:08:20;;;;;;;;;3.00;1.00;;;;;;;;5060282;28;9251;-74
2022/12/26 11:11:02;;;;;;;;;2.00;2.00;;;;;;;;5056237;28;8988;-74
2022/12/26 11:13:33;;;;;;;;;1.00;1.00;;;;;;;;5057664;28;9010;-76
2022/12/26 11:16:00;;;;;;;;;1.00;1.00;;;;;;;;5053141;28;9091;-76
2022/12/26 11:18:34;;;;;;;;;0.67;0.67;;;;;;;;5055671;28;9283;-75
2022/12/26 11:21:13;;;;;;;;;0.00;0.00;;;;;;;;5055672;28;9188;-80
2022/12/26 11:23:41;;;;;;;;;2.00;0.00;;;;;;;;5058481;28;9254;-76
2022/12/26 11:26:21;;;;;;;;;2.67;2.67;;;;;;;;5058937;28;9367;-72
2022/12/26 11:29:06;;;;;;;;;2.00;2.00;;;;;;;;5056161;28;9501;-75
2022/12/26 11:31:34;;;;;;;;;0.00;0.00;;;;;;;;5053399;28;9297;-75
2022/12/26 11:34:07;;;;;;;;;0.00;0.00;;;;;;;;5058763;28;9190;-74
2022/12/26 11:36:39;;;;;;;;;0.00;0.00;;;;;;;;5053968;28;9248;-75
2022/12/26 11:39:16;;;;;;;;;1.00;0.00;;;;;;;;5058128;28;11498;-76
2022/12/26 11:41:47;;;;;;;;;0.00;0.00;;;;;;;;5058963;28;9408;-78
2022/12/26 11:44:21;;;;;;;;;0.00;0.00;;;;;;;;5040642;28;9368;-78
2022/12/26 11:46:53;;;;;;;;;0.75;0.75;;;;;;;;5059447;28;9487;-78
2022/12/26 11:49:28;;;;;;;;;1.25;1.00;;;;;;;;5055383;28;9468;-81
2022/12/26 11:52:03;;;;;;;;;2.50;1.00;;;;;;;;5057527;28;9600;-78
2022/12/26 11:54:36;;;;;;;;;1.00;1.00;;;;;;;;5061325;28;9627;-77
2022/12/26 11:57:20;;;;;;;;;1.00;1.00;;;;;;;;5058241;28;9907;-79
2022/12/26 11:59:50;;;;;;;;;1.00;1.00;;;;;;;;5057806;28;9621;-80
2022/12/26 12:02:27;;;;;;;;;1.00;1.00;;;;;;;;5055772;28;9687;-80
2022/12/26 12:05:01;;;;;;;;;0.25;0.25;;;;;;;;5058930;28;9631;-77
2022/12/26 12:07:52;;;;;;;;;3.50;1.75;;;;;;;;5055808;28;9748;-78
2022/12/26 12:11:00;;;;;;;;;1.00;1.00;;;;;;;;5055211;28;9625;-77
2022/12/26 12:13:45;;;;;;;;;1.75;1.75;;;;;;;;5056569;28;9678;-79
2022/12/26 12:16:31;;;;;;;;;3.00;2.00;;;;;;;;5054460;28;10699;-76
2022/12/26 12:19:09;;;;;;;;;3.25;3.00;;;;;;;;5053575;28;10118;-79
2022/12/26 12:21:42;;;;;;;;;3.25;2.00;;;;;;;;5038228;28;10019;-76
2022/12/26 12:24:35;;;;;;;;;2.00;2.00;;;;;;;;5039272;28;10157;-76
2022/12/26 12:27:12;;;;;;;;;6.75;4.75;;;;;;;;5054022;28;10244;-76
2022/12/26 12:30:01;;;;;;;;;4.00;4.00;;;;;;;;5053274;28;10392;-76
2022/12/26 12:32:39;;;;;;;;;4.00;3.00;;;;;;;;5054350;28;10373;-78
2022/12/26 12:35:34;;;;;;;;;0.00;0.00;;;;;;;;5053885;28;10207;-75
2022/12/26 12:38:26;;;;;;;;;4.00;4.00;;;;;;;;5050615;28;10088;-76
2022/12/26 12:41:08;;;;;;;;;3.00;3.00;;;;;;;;5059296;28;10162;-75
2022/12/26 12:43:43;;;;;;;;;3.50;3.50;;;;;;;;5056732;28;10228;-74
2022/12/26 12:46:18;;;;;;;;;4.00;2.50;;;;;;;;5043444;28;10332;-75
2022/12/26 12:48:58;;;;;;;;;2.25;2.25;;;;;;;;5056075;28;11016;-75
2022/12/26 12:51:36;;;;;;;;;2.00;1.50;;;;;;;;5044857;28;10181;-74
2022/12/26 12:55:01;;;;;;;;;2.50;1.00;;;;;;;;5049988;28;10288;-75
2022/12/26 12:57:33;;;;;;;;;0.75;0.75;;;;;;;;4984478;28;10855;-75
2022/12/26 13:00:13;;;;;;;;;1.00;1.00;;;;;;;;5046123;28;10102;-75
2022/12/26 13:02:43;;;;;;;;;0.50;0.50;;;;;;;;5052469;28;10028;-76
2022/12/26 13:05:19;;;;;;;;;0.50;0.50;;;;;;;;5052008;28;9906;-77
2022/12/26 13:07:51;;;;;;;;;0.50;0.50;;;;;;;;5053902;28;9775;-74
2022/12/26 13:10:23;;;;;;;;;0.00;0.00;;;;;;;;5055305;28;9605;-75
2022/12/26 13:12:52;;;;;;;;;0.75;0.75;;;;;;;;5048247;28;9609;-80
2022/12/26 13:15:27;;;;;;;;;1.00;1.00;;;;;;;;5049852;28;9617;-77
2022/12/26 13:17:59;;;;;;;;;0.00;0.00;;;;;;;;5049887;28;10597;-76
2022/12/26 13:20:33;;;;;;;;;0.50;0.00;;;;;;;;5035559;28;9715;-76
2022/12/26 13:25:55;;;;;;;;;1.75;0.00;;;;;;;;5042220;28;9878;-76
2022/12/26 13:28:28;;;;;;;;;2.00;2.00;;;;;;;;5050241;28;10079;-76
2022/12/26 13:30:56;;;;;;;;;7.00;7.00;;;;;;;;5051944;28;10174;-74
2022/12/26 13:33:24;;;;;;;;;1.75;1.75;;;;;;;;5050312;28;10460;-75
2022/12/26 13:36:06;;;;;;;;;0.00;0.00;;;;;;;;5055603;28;10505;-74
2022/12/26 13:39:13;;;;;;;;;0.00;0.00;;;;;;;;5054034;28;10261;-74
2022/12/26 13:44:31;;;;;;;;;0.75;0.00;;;;;;;;5057145;28;10134;-75
2022/12/26 13:47:01;;;;;;;;;0.00;0.00;;;;;;;;5058544;28;10357;-75
2022/12/26 13:49:35;;;;;;;;;0.00;0.00;;;;;;;;5049447;28;10178;-75
2022/12/26 13:52:31;;;;;;;;;0.00;0.00;;;;;;;;5059244;28;10466;-74
2022/12/26 13:55:20;;;;;;;;;0.00;0.00;;;;;;;;5057483;28;10481;-75
2022/12/26 13:57:47;;;;;;;;;0.00;0.00;;;;;;;;5061556;28;10378;-74
2022/12/26 14:00:21;;;;;;;;;0.00;0.00;;;;;;;;5054643;28;10424;-74
2022/12/26 14:03:16;;;;;;;;;0.00;0.00;;;;;;;;5060830;28;10321;-75
2022/12/26 14:05:58;;;;;;;;;0.00;0.00;;;;;;;;5039750;28;10377;-75
2022/12/26 14:08:34;;;;;;;;;0.00;0.00;;;;;;;;5057076;28;10421;-74
2022/12/26 14:11:12;;;;;;;;;0.00;0.00;;;;;;;;5057335;28;10520;-74
2022/12/26 14:13:55;;;;;;;;;0.00;0.00;;;;;;;;5053110;28;10501;-74
2022/12/26 14:16:30;;;;;;;;;0.00;0.00;;;;;;;;5067409;28;10300;-75
2022/12/26 14:19:04;;;;;;;;;0.00;0.00;;;;;;;;5053308;28;10520;-74
2022/12/26 14:21:40;;;;;;;;;0.00;0.00;;;;;;;;5055525;28;10278;-75
2022/12/26 14:24:22;;;;;;;;;0.00;0.00;;;;;;;;5059382;28;10352;-75
2022/12/26 14:26:54;;;;;;;;;0.00;0.00;;;;;;;;5054921;28;10317;-75
2022/12/26 14:29:27;;;;;;;;;0.00;0.00;;;;;;;;5051306;28;10216;-73
2022/12/26 14:32:12;;;;;;;;;0.75;0.75;;;;;;;;5053628;28;10293;-75
2022/12/26 14:34:54;;;;;;;;;0.25;0.25;;;;;;;;5053608;28;10238;-75
2022/12/26 14:37:25;;;;;;;;;0.00;0.00;;;;;;;;5054342;28;10300;-75
2022/12/26 14:40:08;;;;;;;;;0.00;0.00;;;;;;;;5052105;28;10294;-75
2022/12/26 14:43:12;;;;;;;;;2.00;0.00;;;;;;;;5052960;28;10132;-74
2022/12/26 14:45:45;;;;;;;;;0.00;0.00;;;;;;;;5053139;28;10153;-74
2022/12/26 14:48:52;;;;;;;;;1.00;1.00;;;;;;;;5052586;28;10144;-74
2022/12/26 14:51:40;;;;;;;;;0.00;0.00;;;;;;;;5083479;28;10189;-75
2022/12/26 14:54:32;;;;;;;;;0.50;0.50;;;;;;;;5055042;28;10319;-75
2022/12/26 14:57:02;;;;;;;;;0.00;0.00;;;;;;;;5050812;28;10409;-74
2022/12/26 14:59:32;;;;;;;;;2.00;0.50;;;;;;;;5053688;28;11091;-75
2022/12/26 15:02:10;;;;;;;;;1.00;1.00;;;;;;;;5050004;28;10993;-75
2022/12/26 15:05:01;;;;;;;;;0.50;0.50;;;;;;;;5050888;28;10376;-74
2022/12/26 15:07:57;;;;;;;;;1.00;1.00;;;;;;;;5053503;28;10299;-75
2022/12/26 15:11:13;;;;;;;;;0.50;0.00;;;;;;;;5049023;28;10493;-75
2022/12/26 15:14:37;;;;;;;;;0.75;0.75;;;;;;;;5051947;28;10544;-75
2022/12/26 15:17:15;;;;;;;;;0.75;0.00;;;;;;;;5053203;28;10664;-75
2022/12/26 15:20:14;;;;;;;;;0.00;0.00;;;;;;;;5051244;28;11566;-74
2022/12/26 15:23:26;;;;;;;;;0.00;0.00;;;;;;;;5042438;28;10879;-75
2022/12/26 15:26:33;;;;;;;;;0.00;0.00;;;;;;;;5041665;28;10899;-75
2022/12/26 15:29:45;;;;;;;;;0.00;0.00;;;;;;;;5054133;28;10803;-75
2022/12/26 15:32:18;;;;;;;;;0.00;0.00;;;;;;;;5052817;28;11561;-74
2022/12/26 15:35:14;;;;;;;;;0.00;0.00;;;;;;;;5048808;28;10875;-75
2022/12/26 15:38:09;;;;;;;;;0.00;0.00;;;;;;;;5053769;28;11723;-75
2022/12/26 15:40:43;;;;;;;;;0.00;0.00;;;;;;;;5054358;28;10879;-73
2022/12/26 15:43:45;;;;;;;;;0.00;0.00;;;;;;;;5041413;28;11590;-75
2022/12/26 15:46:18;;;;;;;;;0.50;0.50;;;;;;;;5056588;28;11237;-75
2022/12/26 15:48:59;;;;;;;;;0.00;0.00;;;;;;;;5058727;28;10752;-75
2022/12/26 15:51:37;;;;;;;;;1.00;0.00;;;;;;;;5047808;28;10667;-76
2022/12/26 15:54:20;;;;;;;;;2.00;0.00;;;;;;;;5055383;28;11702;-77
2022/12/26 15:57:01;;;;;;;;;0.00;0.00;;;;;;;;5052499;28;10923;-75
2022/12/26 15:59:51;;;;;;;;;0.00;0.00;;;;;;;;5059018;28;10791;-75
2022/12/26 16:02:35;;;;;;;;;0.50;0.50;;;;;;;;5052078;28;10733;-75
2022/12/26 16:05:31;;;;;;;;;0.00;0.00;;;;;;;;5057831;28;10796;-75
2022/12/26 16:08:27;;;;;;;;;1.00;0.00;;;;;;;;5058990;28;10854;-76
2022/12/26 16:11:18;;;;;;;;;1.00;1.00;;;;;;;;5056793;28;11754;-76
2022/12/26 16:13:57;;;;;;;;;0.00;0.00;;;;;;;;5055990;28;10980;-75
2022/12/26 16:16:27;;;;;;;;;0.25;0.25;;;;;;;;5057962;28;10979;-75
2022/12/26 16:18:54;;;;;;;;;1.00;1.00;;;;;;;;5060263;28;10892;-75
2022/12/26 16:24:11;;;;;;;;;0.00;0.00;;;;;;;;5058416;28;10841;-75
2022/12/26 16:26:42;;;;;;;;;0.00;0.00;;;;;;;;5040316;28;10913;-76
2022/12/26 16:29:16;;;;;;;;;1.00;1.00;;;;;;;;5058718;28;11683;-77
2022/12/26 16:31:44;;;;;;;;;1.00;1.00;;;;;;;;5054728;28;10902;-78
2022/12/26 16:34:15;;;;;;;;;1.00;1.00;;;;;;;;5057106;28;11035;-76
2022/12/26 16:36:44;;;;;;;;;1.00;1.00;;;;;;;;5051524;28;12290;-76
2022/12/26 16:39:13;;;;;;;;;0.25;0.25;;;;;;;;5054642;28;11013;-74
2022/12/26 16:41:59;;;;;;;;;1.00;1.00;;;;;;;;5051052;28;10990;-79
2022/12/26 16:44:35;;;;;;;;;1.25;1.25;;;;;;;;5013664;28;11010;-77
2022/12/26 16:47:05;;;;;;;;;1.00;1.00;;;;;;;;5051735;28;11066;-78
2022/12/26 16:49:35;;;;;;;;;1.00;1.00;;;;;;;;5056894;28;10811;-76
2022/12/26 16:52:06;;;;;;;;;1.00;1.00;;;;;;;;5055844;28;10966;-77
2022/12/26 16:54:38;;;;;;;;;1.00;1.00;;;;;;;;5057875;28;11116;-78
2022/12/26 16:57:11;;;;;;;;;2.75;2.75;;;;;;;;5057673;28;11091;-77
2022/12/26 16:59:44;;;;;;;;;1.00;1.00;;;;;;;;5055784;28;11197;-78
2022/12/26 17:02:17;;;;;;;;;2.00;2.00;;;;;;;;5055881;28;11032;-76
2022/12/26 17:04:52;;;;;;;;;1.00;1.00;;;;;;;;5056619;28;11436;-78
2022/12/26 17:07:22;;;;;;;;;2.00;2.00;;;;;;;;5057511;28;11450;-78
2022/12/26 17:09:52;;;;;;;;;1.00;1.00;;;;;;;;5061090;28;11448;-78
2022/12/26 17:12:23;;;;;;;;;3.00;2.00;;;;;;;;5062072;28;11970;-78
2022/12/26 17:14:51;;;;;;;;;0.00;0.00;;;;;;;;5058653;28;11451;-78
2022/12/26 17:17:31;;;;;;;;;3.50;2.00;;;;;;;;5060941;28;11526;-78
2022/12/26 17:20:19;;;;;;;;;1.25;1.25;;;;;;;;5063319;28;11437;-77
2022/12/26 17:22:49;;;;;;;;;2.00;2.00;;;;;;;;5057146;28;12000;-80
2022/12/26 17:25:25;;;;;;;;;2.00;2.00;;;;;;;;5060797;28;12265;-79
2022/12/26 17:28:23;;;;;;;;;3.25;3.25;;;;;;;;5058587;28;11456;-83
2022/12/26 17:30:52;;;;;;;;;2.00;2.00;;;;;;;;5059754;28;11484;-80
2022/12/26 17:33:22;;;;;;;;;2.00;2.00;;;;;;;;5064694;28;11436;-81
2022/12/26 17:35:50;;;;;;;;;3.00;3.00;;;;;;;;5061656;28;11478;-82
2022/12/26 17:38:21;;;;;;;;;5.75;5.50;;;;;;;;5061902;28;11553;-80
2022/12/26 17:40:51;;;;;;;;;3.50;3.50;;;;;;;;5062831;28;11450;-80
2022/12/26 17:43:23;;;;;;;;;2.50;2.00;;;;;;;;5059905;28;11443;-78